Time,TemperatureF,DewpointF,PressureIn,WindDirection,WindDirectionDegrees,WindSpeedMPH,WindSpeedGustMPH,Humidity,HourlyPrecipIn,Conditions,Clouds,dailyrainin,SoftwareType,DateUTC
2013-07-14 00:00:00,64.0,48.5,29.83,West,270,0.0,0.0,57,0.00,,,0.00,Wunderground v.1.15,2013-07-14 07:00:00,
2013-07-14 00:06:00,63.7,47.7,29.83,North,1,0.0,0.0,56,0.00,,,0.00,Wunderground v.1.15,2013-07-14 07:06:00,
2013-07-14 00:15:00,63.4,47.4,29.83,NE,51,0.0,0.0,56,0.00,,,0.00,Wunderground v.1.15,2013-07-14 07:15:00,
2013-07-14 00:20:00,63.4,47.9,29.83,NE,40,0.0,0.0,57,0.00,,,0.00,Wunderground v.1.15,2013-07-14 07:20:00,
2013-07-14 00:25:00,63.0,47.5,29.83,NE,40,0.0,0.0,57,0.00,,,0.00,Wunderground v.1.15,2013-07-14 07:25:00,
2013-07-14 00:30:00,62.6,47.6,29.83,NE,40,0.0,0.0,58,0.00,,,0.00,Wunderground v.1.15,2013-07-14 07:30:00,
2013-07-14 00:36:00,62.2,47.7,29.83,NE,40,0.0,0.0,59,0.00,,,0.00,Wunderground v.1.15,2013-07-14 07:36:00,
2013-07-14 00:45:00,61.9,47.4,29.83,NE,40,0.0,0.0,59,0.00,,,0.00,Wunderground v.1.15,2013-07-14 07:45:00,
2013-07-14 00:50:00,61.8,47.3,29.83,NE,40,0.0,0.0,59,0.00,,,0.00,Wunderground v.1.15,2013-07-14 07:50:00,
2013-07-14 00:55:00,61.7,48.1,29.83,NE,40,0.0,0.0,61,0.00,,,0.00,Wunderground v.1.15,2013-07-14 07:55:00,
2013-07-14 01:00:00,61.6,47.6,29.83,NE,40,0.0,0.0,60,0.00,,,0.00,Wunderground v.1.15,2013-07-14 08:00:00,
2013-07-14 01:05:00,61.5,47.5,29.83,NE,39,0.0,0.0,60,0.00,,,0.00,Wunderground v.1.15,2013-07-14 08:05:00,
2013-07-14 01:15:00,61.3,47.3,29.83,SSE,148,0.0,0.0,60,0.00,,,0.00,Wunderground v.1.15,2013-07-14 08:15:00,
2013-07-14 01:20:00,61.2,47.2,29.83,North,355,0.0,0.0,60,0.00,,,0.00,Wunderground v.1.15,2013-07-14 08:20:00,
2013-07-14 01:25:00,61.5,47.5,29.83,North,356,1.0,1.0,60,0.00,,,0.00,Wunderground v.1.15,2013-07-14 08:25:00,
2013-07-14 01:30:00,62.1,47.1,29.83,North,355,1.0,1.0,58,0.00,,,0.00,Wunderground v.1.15,2013-07-14 08:30:00,
2013-07-14 01:40:00,61.4,47.8,29.83,WSW,246,0.0,1.0,61,0.00,,,0.00,Wunderground v.1.15,2013-07-14 08:40:00,
2013-07-14 01:45:00,61.5,47.5,29.83,WSW,246,0.0,0.0,60,0.00,,,0.00,Wunderground v.1.15,2013-07-14 08:45:00,
2013-07-14 01:50:00,61.1,47.5,29.83,WSW,245,0.0,0.0,61,0.00,,,0.00,Wunderground v.1.15,2013-07-14 08:50:00,
2013-07-14 01:55:00,61.0,47.4,29.83,WSW,245,0.0,0.0,61,0.00,,,0.00,Wunderground v.1.15,2013-07-14 08:55:00,
2013-07-14 02:00:00,61.0,47.4,29.83,WSW,245,0.0,0.0,61,0.00,,,0.00,Wunderground v.1.15,2013-07-14 09:00:00,
2013-07-14 02:06:00,60.9,47.4,29.83,WSW,245,0.0,0.0,61,0.00,,,0.00,Wunderground v.1.15,2013-07-14 09:06:00,
2013-07-14 02:15:00,60.6,47.9,29.83,WSW,245,0.0,0.0,63,0.00,,,0.00,Wunderground v.1.15,2013-07-14 09:15:00,
2013-07-14 02:20:00,60.7,48.0,29.83,WSW,256,0.0,0.0,63,0.00,,,0.00,Wunderground v.1.15,2013-07-14 09:20:00,
2013-07-14 02:25:00,62.0,48.4,29.83,West,281,0.0,1.0,61,0.00,,,0.00,Wunderground v.1.15,2013-07-14 09:25:00,
2013-07-14 02:30:00,63.0,48.0,29.83,East,81,1.0,1.0,58,0.00,,,0.00,Wunderground v.1.15,2013-07-14 09:30:00,
2013-07-14 02:36:00,62.6,48.5,29.83,West,264,1.0,1.0,60,0.00,,,0.00,Wunderground v.1.15,2013-07-14 09:36:00,
2013-07-14 02:45:00,61.8,48.6,29.83,WNW,295,0.0,0.0,62,0.00,,,0.00,Wunderground v.1.15,2013-07-14 09:45:00,
2013-07-14 02:50:00,62.3,48.2,29.83,NW,316,0.0,3.0,60,0.00,,,0.00,Wunderground v.1.15,2013-07-14 09:50:00,
2013-07-14 02:55:00,62.8,47.8,29.83,West,266,1.0,1.0,58,0.00,,,0.00,Wunderground v.1.15,2013-07-14 09:55:00,
2013-07-14 03:00:00,62.1,47.6,29.83,West,266,0.0,0.0,59,0.00,,,0.00,Wunderground v.1.15,2013-07-14 10:00:00,
2013-07-14 03:06:00,61.3,47.3,29.83,West,266,0.0,0.0,60,0.00,,,0.00,Wunderground v.1.15,2013-07-14 10:06:00,
2013-07-14 03:15:00,60.3,47.6,29.83,West,266,0.0,0.0,63,0.00,,,0.00,Wunderground v.1.15,2013-07-14 10:15:00,
2013-07-14 03:20:00,60.0,47.4,29.83,West,266,0.0,0.0,63,0.00,,,0.00,Wunderground v.1.15,2013-07-14 10:20:00,
2013-07-14 03:30:00,59.3,48.3,29.83,West,278,0.0,0.0,67,0.00,,,0.00,Wunderground v.1.15,2013-07-14 10:30:00,
2013-07-14 03:35:00,59.2,48.2,29.83,West,278,0.0,0.0,67,0.00,,,0.00,Wunderground v.1.15,2013-07-14 10:35:00,
2013-07-14 03:40:00,58.8,48.3,29.83,West,278,0.0,0.0,68,0.00,,,0.00,Wunderground v.1.15,2013-07-14 10:40:00,
2013-07-14 03:45:00,58.4,48.3,29.83,West,278,0.0,0.0,69,0.00,,,0.00,Wunderground v.1.15,2013-07-14 10:45:00,
2013-07-14 03:51:00,58.2,48.1,29.83,West,278,0.0,0.0,69,0.00,,,0.00,Wunderground v.1.15,2013-07-14 10:51:00,
2013-07-14 04:00:00,57.8,48.1,29.82,West,280,0.0,0.0,70,0.00,,,0.00,Wunderground v.1.15,2013-07-14 11:00:00,
2013-07-14 04:05:00,57.6,48.3,29.82,West,280,0.0,0.0,71,0.00,,,0.00,Wunderground v.1.15,2013-07-14 11:05:00,
2013-07-14 04:11:00,57.4,48.1,29.82,West,280,0.0,0.0,71,0.00,,,0.00,Wunderground v.1.15,2013-07-14 11:11:00,
2013-07-14 04:20:00,57.7,47.6,29.82,West,280,0.0,0.0,69,0.00,,,0.00,Wunderground v.1.15,2013-07-14 11:20:00,
2013-07-14 04:25:00,58.4,47.9,29.82,West,280,0.0,0.0,68,0.00,,,0.00,Wunderground v.1.15,2013-07-14 11:25:00,
2013-07-14 04:30:00,58.4,47.5,29.82,West,280,0.0,0.0,67,0.00,,,0.00,Wunderground v.1.15,2013-07-14 11:30:00,
2013-07-14 04:35:00,58.2,47.7,29.82,West,280,0.0,0.0,68,0.00,,,0.00,Wunderground v.1.15,2013-07-14 11:35:00,
2013-07-14 04:41:00,58.0,47.5,29.82,West,280,0.0,0.0,68,0.00,,,0.00,Wunderground v.1.15,2013-07-14 11:41:00,
2013-07-14 04:46:00,57.9,47.4,29.82,West,279,0.0,0.0,68,0.00,,,0.00,Wunderground v.1.15,2013-07-14 11:46:00,
2013-07-14 04:55:00,58.1,48.0,29.82,West,280,0.0,0.0,69,0.00,,,0.00,Wunderground v.1.15,2013-07-14 11:55:00,
2013-07-14 05:00:00,58.1,47.6,29.82,West,280,0.0,0.0,68,0.00,,,0.00,Wunderground v.1.15,2013-07-14 12:00:00,
2013-07-14 05:05:00,58.1,47.2,29.82,West,280,0.0,0.0,67,0.00,,,0.00,Wunderground v.1.15,2013-07-14 12:05:00,
2013-07-14 05:15:00,57.6,47.9,29.83,West,280,0.0,0.0,70,0.00,,,0.00,Wunderground v.1.15,2013-07-14 12:15:00,
2013-07-14 05:20:00,57.5,47.8,29.83,West,280,0.0,0.0,70,0.00,,,0.00,Wunderground v.1.15,2013-07-14 12:20:00,
2013-07-14 05:25:00,57.9,47.8,29.83,North,7,0.0,0.0,69,0.00,,,0.00,Wunderground v.1.15,2013-07-14 12:25:00,
2013-07-14 05:30:00,58.6,48.1,29.83,North,7,0.0,0.0,68,0.00,,,0.00,Wunderground v.1.15,2013-07-14 12:30:00,
2013-07-14 05:36:00,59.1,48.1,29.83,North,6,0.0,0.0,67,0.00,,,0.00,Wunderground v.1.15,2013-07-14 12:36:00,
2013-07-14 05:45:00,59.9,48.1,29.83,South,169,0.0,0.0,65,0.00,,,0.00,Wunderground v.1.15,2013-07-14 12:45:00,
2013-07-14 05:50:00,60.9,48.6,29.83,WNW,285,0.0,0.0,64,0.00,,,0.00,Wunderground v.1.15,2013-07-14 12:50:00,
2013-07-14 05:55:00,60.5,48.3,29.83,NE,53,1.0,2.0,64,0.00,,,0.00,Wunderground v.1.15,2013-07-14 12:55:00,
2013-07-14 06:00:00,60.2,48.4,29.84,NE,47,1.0,1.0,65,0.00,,,0.00,Wunderground v.1.15,2013-07-14 13:00:00,
2013-07-14 06:06:00,60.1,48.3,29.84,NE,47,1.0,1.0,65,0.00,,,0.00,Wunderground v.1.15,2013-07-14 13:06:00,
2013-07-14 06:11:00,59.8,48.4,29.84,NE,47,1.0,1.0,66,0.00,,,0.00,Wunderground v.1.15,2013-07-14 13:11:00,
2013-07-14 06:20:00,59.5,48.5,29.85,NE,47,0.0,0.0,67,0.00,,,0.00,Wunderground v.1.15,2013-07-14 13:20:00,
2013-07-14 06:40:00,57.5,48.5,29.86,West,281,0.0,0.0,72,0.00,,,0.00,Wunderground v.1.15,2013-07-14 13:40:00,
2013-07-14 06:50:00,57.8,48.5,29.86,West,281,0.0,0.0,71,0.00,,,0.00,Wunderground v.1.15,2013-07-14 13:50:00,
2013-07-14 06:56:00,57.6,48.3,29.86,West,281,0.0,0.0,71,0.00,,,0.00,Wunderground v.1.15,2013-07-14 13:56:00,
2013-07-14 07:01:00,57.4,48.4,29.86,WNW,283,0.0,0.0,72,0.00,,,0.00,Wunderground v.1.15,2013-07-14 14:01:00,
2013-07-14 07:11:00,57.6,48.6,29.86,NNW,336,0.0,0.0,72,0.00,,,0.00,Wunderground v.1.15,2013-07-14 14:11:00,
2013-07-14 07:20:00,58.7,49.7,29.86,ENE,77,0.0,0.0,72,0.00,,,0.00,Wunderground v.1.15,2013-07-14 14:20:00,
2013-07-14 07:26:00,59.5,49.7,29.86,SW,231,0.0,0.0,70,0.00,,,0.00,Wunderground v.1.15,2013-07-14 14:26:00,
2013-07-14 07:35:00,59.9,50.1,29.87,ENE,77,0.0,0.0,70,0.00,,,0.00,Wunderground v.1.15,2013-07-14 14:35:00,
2013-07-14 07:40:00,61.0,50.4,29.86,East,90,0.0,0.0,68,0.00,,,0.00,Wunderground v.1.15,2013-07-14 14:40:00,
2013-07-14 07:45:00,61.4,50.7,29.86,ENE,61,1.0,1.0,68,0.00,,,0.00,Wunderground v.1.15,2013-07-14 14:45:00,
2013-07-14 07:50:00,62.5,51.0,29.87,NNE,33,1.0,1.0,66,0.00,,,0.00,Wunderground v.1.15,2013-07-14 14:50:00,
2013-07-14 07:56:00,63.3,51.3,29.86,ENE,63,0.0,1.0,65,0.00,,,0.00,Wunderground v.1.15,2013-07-14 14:56:00,
2013-07-14 08:01:00,63.8,51.8,29.87,East,85,0.0,0.0,65,0.00,,,0.00,Wunderground v.1.15,2013-07-14 15:01:00,
2013-07-14 08:11:00,64.5,51.6,29.87,East,92,0.0,0.0,63,0.00,,,0.00,Wunderground v.1.15,2013-07-14 15:11:00,
2013-07-14 08:20:00,66.4,52.1,29.87,WSW,240,0.0,0.0,60,0.00,,,0.00,Wunderground v.1.15,2013-07-14 15:20:00,
2013-07-14 08:26:00,67.4,52.6,29.87,SE,139,0.0,1.0,59,0.00,,,0.00,Wunderground v.1.15,2013-07-14 15:26:00,
2013-07-14 08:35:00,69.4,52.5,29.87,SE,139,0.0,0.0,55,0.00,,,0.00,Wunderground v.1.15,2013-07-14 15:35:00,
2013-07-14 08:40:00,70.3,52.9,29.87,SE,127,0.0,1.0,54,0.00,,,0.00,Wunderground v.1.15,2013-07-14 15:40:00,
2013-07-14 08:45:00,71.0,53.0,29.87,ESE,105,0.0,1.0,53,0.00,,,0.00,Wunderground v.1.15,2013-07-14 15:45:00,
2013-07-14 08:51:00,71.7,53.1,29.87,SE,131,0.0,0.0,52,0.00,,,0.00,Wunderground v.1.15,2013-07-14 15:51:00,
2013-07-14 09:00:00,73.5,53.2,29.87,ESE,105,0.0,0.0,49,0.00,,,0.00,Wunderground v.1.15,2013-07-14 16:00:00,
2013-07-14 09:05:00,74.1,53.2,29.87,ESE,116,0.0,1.0,48,0.00,,,0.00,Wunderground v.1.15,2013-07-14 16:05:00,
2013-07-14 09:15:00,75.9,53.6,29.87,ESE,116,0.0,0.0,46,0.00,,,0.00,Wunderground v.1.15,2013-07-14 16:15:00,
2013-07-14 09:20:00,77.0,53.4,29.87,SE,135,0.0,0.0,44,0.00,,,0.00,Wunderground v.1.15,2013-07-14 16:20:00,
2013-07-14 09:25:00,77.7,53.4,29.87,SSW,208,0.0,0.0,43,0.00,,,0.00,Wunderground v.1.15,2013-07-14 16:25:00,
2013-07-14 09:30:00,78.7,53.7,29.87,South,170,0.0,0.0,42,0.00,,,0.00,Wunderground v.1.15,2013-07-14 16:30:00,
2013-07-14 09:36:00,79.7,53.2,29.87,SSE,165,0.0,0.0,40,0.00,,,0.00,Wunderground v.1.15,2013-07-14 16:36:00,
2013-07-14 09:45:00,79.7,52.5,29.86,East,98,0.0,1.0,39,0.00,,,0.00,Wunderground v.1.15,2013-07-14 16:45:00,
2013-07-14 09:50:00,80.1,52.2,29.86,North,356,0.0,1.0,38,0.00,,,0.00,Wunderground v.1.15,2013-07-14 16:50:00,
2013-07-14 09:55:00,80.6,52.6,29.86,SSW,205,0.0,0.0,38,0.00,,,0.00,Wunderground v.1.15,2013-07-14 16:55:00,
2013-07-14 10:00:00,81.0,51.5,29.86,WSW,246,1.0,1.0,36,0.00,,,0.00,Wunderground v.1.15,2013-07-14 17:00:00,
2013-07-14 10:06:00,81.2,53.2,29.86,SW,214,1.0,1.0,38,0.00,,,0.00,Wunderground v.1.15,2013-07-14 17:06:00,
2013-07-14 10:15:00,81.4,54.1,29.86,SSW,206,2.0,2.0,39,0.00,,,0.00,Wunderground v.1.15,2013-07-14 17:15:00,
2013-07-14 10:21:00,81.4,53.4,29.86,SSW,211,2.0,2.0,38,0.00,,,0.00,Wunderground v.1.15,2013-07-14 17:21:00,
2013-07-14 10:26:00,81.0,54.4,29.86,SSW,205,2.0,3.0,40,0.00,,,0.00,Wunderground v.1.15,2013-07-14 17:26:00,
2013-07-14 10:35:00,81.6,54.2,29.86,SW,218,2.0,3.0,39,0.00,,,0.00,Wunderground v.1.15,2013-07-14 17:35:00,
2013-07-14 10:40:00,81.3,54.0,29.86,South,183,2.0,4.0,39,0.00,,,0.00,Wunderground v.1.15,2013-07-14 17:40:00,
2013-07-14 10:45:00,81.7,54.3,29.86,East,97,2.0,4.0,39,0.00,,,0.00,Wunderground v.1.15,2013-07-14 17:45:00,
2013-07-14 10:50:00,82.0,53.9,29.86,SSE,165,2.0,3.0,38,0.00,,,0.00,Wunderground v.1.15,2013-07-14 17:50:00,
2013-07-14 10:56:00,82.1,54.0,29.86,SSW,195,2.0,3.0,38,0.00,,,0.00,Wunderground v.1.15,2013-07-14 17:56:00,
2013-07-14 11:01:00,81.8,54.4,29.86,SSW,207,2.0,2.0,39,0.00,,,0.00,Wunderground v.1.15,2013-07-14 18:01:00,
2013-07-14 11:11:00,81.8,54.4,29.86,SSW,207,3.0,3.0,39,0.00,,,0.00,Wunderground v.1.15,2013-07-14 18:11:00,
2013-07-14 11:20:00,82.1,54.7,29.87,South,179,3.0,4.0,39,0.00,,,0.00,Wunderground v.1.15,2013-07-14 18:20:00,
2013-07-14 11:25:00,82.4,54.2,29.86,South,169,3.0,4.0,38,0.00,,,0.00,Wunderground v.1.15,2013-07-14 18:25:00,
2013-07-14 11:31:00,82.3,54.2,29.86,SW,219,2.0,2.0,38,0.00,,,0.00,Wunderground v.1.15,2013-07-14 18:31:00,
2013-07-14 11:36:00,82.6,54.4,29.87,SW,214,2.0,3.0,38,0.00,,,0.00,Wunderground v.1.15,2013-07-14 18:36:00,
2013-07-14 11:45:00,83.2,54.2,29.86,South,172,3.0,3.0,37,0.00,,,0.00,Wunderground v.1.15,2013-07-14 18:45:00,
2013-07-14 11:50:00,83.5,54.5,29.86,SSW,199,3.0,3.0,37,0.00,,,0.00,Wunderground v.1.15,2013-07-14 18:50:00,
2013-07-14 11:55:00,83.4,54.4,29.86,South,178,3.0,3.0,37,0.00,,,0.00,Wunderground v.1.15,2013-07-14 18:55:00,
2013-07-14 12:01:00,83.6,54.6,29.86,South,173,3.0,3.0,37,0.00,,,0.00,Wunderground v.1.15,2013-07-14 19:01:00,
2013-07-14 12:11:00,85.0,54.3,29.86,SW,226,2.0,2.0,35,0.00,,,0.00,Wunderground v.1.15,2013-07-14 19:11:00,
2013-07-14 12:20:00,84.4,53.8,29.86,South,189,3.0,3.0,35,0.00,,,0.00,Wunderground v.1.15,2013-07-14 19:20:00,
2013-07-14 12:26:00,84.5,53.8,29.86,South,171,3.0,3.0,35,0.00,,,0.00,Wunderground v.1.15,2013-07-14 19:26:00,
2013-07-14 12:35:00,85.3,53.8,29.86,SE,136,3.0,4.0,34,0.00,,,0.00,Wunderground v.1.15,2013-07-14 19:35:00,
2013-07-14 12:40:00,86.0,53.5,29.86,SW,224,3.0,3.0,33,0.00,,,0.00,Wunderground v.1.15,2013-07-14 19:40:00,
2013-07-14 12:45:00,86.8,53.4,29.86,SSW,209,2.0,3.0,32,0.00,,,0.00,Wunderground v.1.15,2013-07-14 19:45:00,
2013-07-14 12:50:00,87.2,53.7,29.86,South,184,2.0,3.0,32,0.00,,,0.00,Wunderground v.1.15,2013-07-14 19:50:00,
2013-07-14 12:56:00,87.3,53.0,29.85,South,171,2.0,4.0,31,0.00,,,0.00,Wunderground v.1.15,2013-07-14 19:56:00,
2013-07-14 13:05:00,87.9,51.7,29.85,SSE,164,3.0,4.0,29,0.00,,,0.00,Wunderground v.1.15,2013-07-14 20:05:00,
2013-07-14 13:11:00,88.3,52.9,29.85,SSE,157,2.0,3.0,30,0.00,,,0.00,Wunderground v.1.15,2013-07-14 20:11:00,
2013-07-14 13:20:00,88.9,52.5,29.85,SW,231,3.0,3.0,29,0.00,,,0.00,Wunderground v.1.15,2013-07-14 20:20:00,
2013-07-14 13:25:00,89.5,53.0,29.84,South,172,3.0,4.0,29,0.00,,,0.00,Wunderground v.1.15,2013-07-14 20:25:00,
2013-07-14 13:30:00,89.9,52.4,29.85,SE,126,3.0,4.0,28,0.00,,,0.00,Wunderground v.1.15,2013-07-14 20:30:00,
2013-07-14 13:35:00,90.3,51.8,29.84,SSE,167,2.0,2.0,27,0.00,,,0.00,Wunderground v.1.15,2013-07-14 20:35:00,
2013-07-14 13:40:00,90.4,51.9,29.84,SSE,158,3.0,3.0,27,0.00,,,0.00,Wunderground v.1.15,2013-07-14 20:40:00,
2013-07-14 13:46:00,90.8,51.2,29.84,ESE,103,2.0,2.0,26,0.00,,,0.00,Wunderground v.1.15,2013-07-14 20:46:00,
2013-07-14 13:55:00,90.1,51.6,29.84,South,172,3.0,3.0,27,0.00,,,0.00,Wunderground v.1.15,2013-07-14 20:55:00,
2013-07-14 14:00:00,90.9,51.3,29.84,South,169,2.0,2.0,26,0.00,,,0.00,Wunderground v.1.15,2013-07-14 21:00:00,
2013-07-14 14:05:00,91.2,50.5,29.84,ESE,115,2.0,2.0,25,0.00,,,0.00,Wunderground v.1.15,2013-07-14 21:05:00,
2013-07-14 14:15:00,91.4,50.6,29.83,SE,134,2.0,2.0,25,0.00,,,0.00,Wunderground v.1.15,2013-07-14 21:15:00,
2013-07-14 14:20:00,91.7,49.8,29.83,East,96,2.0,2.0,24,0.00,,,0.00,Wunderground v.1.15,2013-07-14 21:20:00,
2013-07-14 14:25:00,92.1,49.0,29.83,SSE,148,2.0,3.0,23,0.00,,,0.00,Wunderground v.1.15,2013-07-14 21:25:00,
2013-07-14 14:30:00,92.5,48.1,29.83,SW,224,2.0,3.0,22,0.00,,,0.00,Wunderground v.1.15,2013-07-14 21:30:00,
2013-07-14 14:36:00,93.2,47.5,29.83,West,266,2.0,2.0,21,0.00,,,0.00,Wunderground v.1.15,2013-07-14 21:36:00,
2013-07-14 14:45:00,93.8,49.2,29.82,South,191,2.0,2.0,22,0.00,,,0.00,Wunderground v.1.15,2013-07-14 21:45:00,
2013-07-14 14:50:00,94.2,49.5,29.82,SW,216,2.0,4.0,22,0.00,,,0.00,Wunderground v.1.15,2013-07-14 21:50:00,
2013-07-14 14:55:00,93.4,50.1,29.82,NW,311,2.0,2.0,23,0.00,,,0.00,Wunderground v.1.15,2013-07-14 21:55:00,
2013-07-14 15:01:00,93.4,50.1,29.82,NNE,15,2.0,4.0,23,0.00,,,0.00,Wunderground v.1.15,2013-07-14 22:01:00,
2013-07-14 15:11:00,91.1,45.7,29.81,WSW,245,5.0,7.0,21,0.00,,,0.00,Wunderground v.1.15,2013-07-14 22:11:00,
2013-07-14 15:21:00,91.1,48.1,29.81,West,276,4.0,5.0,23,0.00,,,0.00,Wunderground v.1.15,2013-07-14 22:21:00,
2013-07-14 15:30:00,91.3,48.3,29.81,WNW,290,4.0,4.0,23,0.00,,,0.00,Wunderground v.1.15,2013-07-14 22:30:00,
2013-07-14 15:35:00,91.3,48.3,29.81,NW,323,4.0,4.0,23,0.00,,,0.00,Wunderground v.1.15,2013-07-14 22:35:00,
2013-07-14 15:40:00,91.4,48.4,29.81,WNW,283,4.0,4.0,23,0.00,,,0.00,Wunderground v.1.15,2013-07-14 22:40:00,
2013-07-14 15:46:00,91.1,48.1,29.81,SW,214,4.0,4.0,23,0.00,,,0.00,Wunderground v.1.15,2013-07-14 22:46:00,
2013-07-14 15:55:00,91.7,48.6,29.80,West,279,3.0,7.0,23,0.00,,,0.00,Wunderground v.1.15,2013-07-14 22:55:00,
2013-07-14 16:00:00,90.7,48.9,29.80,East,91,4.0,4.0,24,0.00,,,0.00,Wunderground v.1.15,2013-07-14 23:00:00,
2013-07-14 16:05:00,91.4,48.4,29.80,WSW,257,3.0,4.0,23,0.00,,,0.00,Wunderground v.1.15,2013-07-14 23:05:00,
2013-07-14 16:15:00,91.0,49.2,29.80,WNW,283,3.0,4.0,24,0.00,,,0.00,Wunderground v.1.15,2013-07-14 23:15:00,
2013-07-14 16:21:00,90.8,52.2,29.80,WSW,249,4.0,6.0,27,0.00,,,0.00,Wunderground v.1.15,2013-07-14 23:21:00,
2013-07-14 16:26:00,91.1,54.4,29.79,NNW,344,3.0,3.0,29,0.00,,,0.00,Wunderground v.1.15,2013-07-14 23:26:00,
2013-07-14 16:35:00,90.9,54.2,29.79,WSW,248,3.0,7.0,29,0.00,,,0.00,Wunderground v.1.15,2013-07-14 23:35:00,
2013-07-14 16:40:00,90.3,53.7,29.79,SSW,209,3.0,7.0,29,0.00,,,0.00,Wunderground v.1.15,2013-07-14 23:40:00,
2013-07-14 16:45:00,89.9,54.3,29.79,WSW,245,3.0,3.0,30,0.00,,,0.00,Wunderground v.1.15,2013-07-14 23:45:00,
2013-07-14 16:50:00,90.4,54.7,29.79,NW,307,2.0,3.0,30,0.00,,,0.00,Wunderground v.1.15,2013-07-14 23:50:00,
2013-07-14 16:56:00,90.0,55.3,29.79,North,354,3.0,3.0,31,0.00,,,0.00,Wunderground v.1.15,2013-07-14 23:56:00,
2013-07-14 17:01:00,89.4,54.8,29.79,NNW,335,3.0,3.0,31,0.00,,,0.00,Wunderground v.1.15,2013-07-15 00:01:00,
2013-07-14 17:11:00,89.3,54.7,29.78,WSW,237,3.0,3.0,31,0.00,,,0.00,Wunderground v.1.15,2013-07-15 00:11:00,
2013-07-14 17:20:00,89.2,54.6,29.78,WNW,290,3.0,5.0,31,0.00,,,0.00,Wunderground v.1.15,2013-07-15 00:20:00,
2013-07-14 17:25:00,88.9,55.2,29.78,NW,304,3.0,5.0,32,0.00,,,0.00,Wunderground v.1.15,2013-07-15 00:25:00,
2013-07-14 17:30:00,88.4,54.8,29.78,NE,46,3.0,3.0,32,0.00,,,0.00,Wunderground v.1.15,2013-07-15 00:30:00,
2013-07-14 17:36:00,88.4,54.8,29.77,WSW,252,3.0,4.0,32,0.00,,,0.00,Wunderground v.1.15,2013-07-15 00:36:00,
2013-07-14 17:41:00,88.1,54.5,29.77,NE,52,2.0,5.0,32,0.00,,,0.00,Wunderground v.1.15,2013-07-15 00:41:00,
2013-07-14 17:50:00,88.1,53.7,29.77,WNW,287,3.0,4.0,31,0.00,,,0.00,Wunderground v.1.15,2013-07-15 00:50:00,
2013-07-14 18:00:00,86.8,54.2,29.77,West,271,3.0,3.0,33,0.00,,,0.00,Wunderground v.1.15,2013-07-15 01:00:00,
2013-07-14 18:05:00,87.0,53.6,29.77,NE,39,3.0,3.0,32,0.00,,,0.00,Wunderground v.1.15,2013-07-15 01:05:00,
2013-07-14 18:11:00,87.3,53.8,29.77,WSW,248,2.0,3.0,32,0.00,,,0.00,Wunderground v.1.15,2013-07-15 01:11:00,
2013-07-14 18:20:00,86.1,54.5,29.77,WNW,302,3.0,3.0,34,0.00,,,0.00,Wunderground v.1.15,2013-07-15 01:20:00,
2013-07-14 18:25:00,85.4,53.8,29.77,WSW,248,3.0,5.0,34,0.00,,,0.00,Wunderground v.1.15,2013-07-15 01:25:00,
2013-07-14 18:30:00,84.8,53.3,29.77,West,262,4.0,5.0,34,0.00,,,0.00,Wunderground v.1.15,2013-07-15 01:30:00,
2013-07-14 18:36:00,83.9,53.3,29.77,West,266,4.0,4.0,35,0.00,,,0.00,Wunderground v.1.15,2013-07-15 01:36:00,
2013-07-14 18:41:00,83.7,53.1,29.77,NNE,29,4.0,5.0,35,0.00,,,0.00,Wunderground v.1.15,2013-07-15 01:41:00,
2013-07-14 18:46:00,83.4,52.9,29.77,NW,314,4.0,5.0,35,0.00,,,0.00,Wunderground v.1.15,2013-07-15 01:46:00,
2013-07-14 18:55:00,83.0,52.5,29.77,NW,312,4.0,5.0,35,0.00,,,0.00,Wunderground v.1.15,2013-07-15 01:55:00,
2013-07-14 19:00:00,82.8,51.6,29.77,NW,304,4.0,4.0,34,0.00,,,0.00,Wunderground v.1.15,2013-07-15 02:00:00,
2013-07-14 19:05:00,82.4,52.0,29.77,West,263,4.0,4.0,35,0.00,,,0.00,Wunderground v.1.15,2013-07-15 02:05:00,
2013-07-14 19:15:00,82.0,50.9,29.77,NNW,329,3.0,3.0,34,0.00,,,0.00,Wunderground v.1.15,2013-07-15 02:15:00,
2013-07-14 19:20:00,81.5,51.2,29.77,NW,321,4.0,4.0,35,0.00,,,0.00,Wunderground v.1.15,2013-07-15 02:20:00,
2013-07-14 19:25:00,81.3,51.0,29.77,West,264,3.0,3.0,35,0.00,,,0.00,Wunderground v.1.15,2013-07-15 02:25:00,
2013-07-14 19:30:00,80.9,50.7,29.77,North,1,3.0,3.0,35,0.00,,,0.00,Wunderground v.1.15,2013-07-15 02:30:00,
2013-07-14 19:36:00,80.2,50.8,29.77,ENE,78,2.0,7.0,36,0.00,,,0.00,Wunderground v.1.15,2013-07-15 02:36:00,
2013-07-14 19:41:00,79.4,50.1,29.77,WSW,255,2.0,7.0,36,0.00,,,0.00,Wunderground v.1.15,2013-07-15 02:41:00,
2013-07-14 19:50:00,78.2,50.5,29.78,North,4,2.0,2.0,38,0.00,,,0.00,Wunderground v.1.15,2013-07-15 02:50:00,
2013-07-14 19:55:00,77.5,49.9,29.78,WNW,295,2.0,2.0,38,0.00,,,0.00,Wunderground v.1.15,2013-07-15 02:55:00,
2013-07-14 20:00:00,77.1,50.2,29.78,NW,319,1.0,1.0,39,0.00,,,0.00,Wunderground v.1.15,2013-07-15 03:00:00,
2013-07-14 20:06:00,76.6,50.5,29.78,NNW,342,2.0,2.0,40,0.00,,,0.00,Wunderground v.1.15,2013-07-15 03:06:00,
2013-07-14 20:15:00,75.9,50.5,29.78,North,7,2.0,3.0,41,0.00,,,0.00,Wunderground v.1.15,2013-07-15 03:15:00,
2013-07-14 20:20:00,75.5,50.8,29.78,ENE,68,2.0,2.0,42,0.00,,,0.00,Wunderground v.1.15,2013-07-15 03:20:00,
2013-07-14 20:25:00,75.1,50.4,29.78,ESE,113,2.0,2.0,42,0.00,,,0.00,Wunderground v.1.15,2013-07-15 03:25:00,
2013-07-14 20:31:00,75.0,51.0,29.78,SE,124,2.0,2.0,43,0.00,,,0.00,Wunderground v.1.15,2013-07-15 03:31:00,
2013-07-14 20:36:00,74.4,50.4,29.78,ENE,58,2.0,2.0,43,0.00,,,0.00,Wunderground v.1.15,2013-07-15 03:36:00,
2013-07-14 20:45:00,73.8,50.5,29.78,NW,304,1.0,2.0,44,0.00,,,0.00,Wunderground v.1.15,2013-07-15 03:45:00,
2013-07-14 20:50:00,73.3,50.1,29.78,WNW,293,1.0,2.0,44,0.00,,,0.00,Wunderground v.1.15,2013-07-15 03:50:00,
2013-07-14 20:55:00,73.1,49.9,29.78,NNW,332,1.0,5.0,44,0.00,,,0.00,Wunderground v.1.15,2013-07-15 03:55:00,
2013-07-14 21:01:00,73.2,50.0,29.78,NW,311,2.0,3.0,44,0.00,,,0.00,Wunderground v.1.15,2013-07-15 04:01:00,
2013-07-14 21:06:00,73.1,49.3,29.78,NE,52,3.0,5.0,43,0.00,,,0.00,Wunderground v.1.15,2013-07-15 04:06:00,
2013-07-14 21:11:00,73.1,49.3,29.78,WNW,297,3.0,3.0,43,0.00,,,0.00,Wunderground v.1.15,2013-07-15 04:11:00,
2013-07-14 21:15:00,73.1,49.3,29.78,NW,314,3.0,3.0,43,0.00,,,0.00,Wunderground v.1.15,2013-07-15 04:15:00,
2013-07-14 21:21:00,72.7,48.9,29.79,West,268,2.0,2.0,43,0.00,,,0.00,Wunderground v.1.15,2013-07-15 04:21:00,
2013-07-14 21:26:00,72.5,49.3,29.79,East,96,2.0,2.0,44,0.00,,,0.00,Wunderground v.1.15,2013-07-15 04:26:00,
2013-07-14 21:31:00,72.0,48.9,29.79,NW,307,2.0,2.0,44,0.00,,,0.00,Wunderground v.1.15,2013-07-15 04:31:00,
2013-07-14 21:40:00,71.5,49.0,29.79,North,8,1.0,4.0,45,0.00,,,0.00,Wunderground v.1.15,2013-07-15 04:40:00,
2013-07-14 21:45:00,71.5,48.4,29.79,WSW,253,2.0,4.0,44,0.00,,,0.00,Wunderground v.1.15,2013-07-15 04:45:00,
2013-07-14 21:50:00,71.2,48.8,29.80,WNW,299,3.0,3.0,45,0.00,,,0.00,Wunderground v.1.15,2013-07-15 04:50:00,
2013-07-14 21:55:00,70.8,48.4,29.80,East,91,2.0,3.0,45,0.00,,,0.00,Wunderground v.1.15,2013-07-15 04:55:00,
2013-07-14 22:01:00,70.9,49.1,29.80,NW,304,2.0,2.0,46,0.00,,,0.00,Wunderground v.1.15,2013-07-15 05:01:00,
2013-07-14 22:06:00,70.7,48.3,29.80,WNW,300,2.0,2.0,45,0.00,,,0.00,Wunderground v.1.15,2013-07-15 05:06:00,
2013-07-14 22:11:00,70.4,48.0,29.80,NNE,33,1.0,1.0,45,0.00,,,0.00,Wunderground v.1.15,2013-07-15 05:11:00,
2013-07-14 22:20:00,70.0,47.7,29.80,SSW,199,1.0,1.0,45,0.00,,,0.00,Wunderground v.1.15,2013-07-15 05:20:00,
2013-07-14 22:25:00,70.0,48.3,29.79,South,170,1.0,1.0,46,0.00,,,0.00,Wunderground v.1.15,2013-07-15 05:25:00,
2013-07-14 22:31:00,69.7,48.0,29.79,ESE,113,1.0,1.0,46,0.00,,,0.00,Wunderground v.1.15,2013-07-15 05:31:00,
2013-07-14 22:36:00,69.1,47.4,29.79,WNW,297,1.0,3.0,46,0.00,,,0.00,Wunderground v.1.15,2013-07-15 05:36:00,
2013-07-14 22:45:00,68.3,47.8,29.79,ESE,113,1.0,2.0,48,0.00,,,0.00,Wunderground v.1.15,2013-07-15 05:45:00,
2013-07-14 22:50:00,67.7,47.3,29.79,WSW,250,1.0,2.0,48,0.00,,,0.00,Wunderground v.1.15,2013-07-15 05:50:00,
2013-07-14 22:55:00,67.1,48.4,29.79,ESE,105,1.0,2.0,51,0.00,,,0.00,Wunderground v.1.15,2013-07-15 05:55:00,
2013-07-14 23:01:00,66.3,48.1,29.79,WSW,251,1.0,1.0,52,0.00,,,0.00,Wunderground v.1.15,2013-07-15 06:01:00,
2013-07-14 23:15:00,64.9,47.9,29.79,East,91,1.0,1.0,54,0.00,,,0.00,Wunderground v.1.15,2013-07-15 06:15:00,
2013-07-14 23:20:00,64.5,48.0,29.79,NNE,24,1.0,1.0,55,0.00,,,0.00,Wunderground v.1.15,2013-07-15 06:20:00,
2013-07-14 23:25:00,63.9,47.4,29.79,East,90,1.0,1.0,55,0.00,,,0.00,Wunderground v.1.15,2013-07-15 06:25:00,
2013-07-14 23:30:00,64.0,47.0,29.79,East,79,1.0,1.0,54,0.00,,,0.00,Wunderground v.1.15,2013-07-15 06:30:00,
2013-07-14 23:36:00,63.7,47.2,29.79,NE,46,0.0,0.0,55,0.00,,,0.00,Wunderground v.1.15,2013-07-15 06:36:00,
2013-07-14 23:41:00,63.2,46.8,29.79,East,91,0.0,2.0,55,0.00,,,0.00,Wunderground v.1.15,2013-07-15 06:41:00,
2013-07-14 23:46:00,63.2,47.2,29.79,SE,130,1.0,1.0,56,0.00,,,0.00,Wunderground v.1.15,2013-07-15 06:46:00,
2013-07-14 23:55:00,63.3,47.3,29.79,East,86,1.0,1.0,56,0.00,,,0.00,Wunderground v.1.15,2013-07-15 06:55:00,